createdAt,value
2023-05-18T00:00:03.092Z,6.90
2023-05-18T00:02:31.879Z,7.50
2023-05-18T00:05:02.230Z,7.10
2023-05-18T00:07:34.090Z,7.20
2023-05-18T00:10:01.939Z,7.50
2023-05-18T00:12:29.284Z,7.30
2023-05-18T00:14:56.586Z,7.30
2023-05-18T00:17:23.723Z,7.80
2023-05-18T00:19:50.811Z,7.00
2023-05-18T00:22:20.647Z,7.50
2023-05-18T00:24:48.450Z,7.10
2023-05-18T00:27:15.633Z,6.90
2023-05-18T00:29:42.559Z,7.00
2023-05-18T00:32:09.570Z,7.10
2023-05-18T00:34:37.523Z,7.00
2023-05-18T00:37:04.639Z,7.50
2023-05-18T00:39:31.579Z,7.20
2023-05-18T00:41:58.570Z,7.20
2023-05-18T00:44:25.653Z,7.00
2023-05-18T00:46:52.711Z,7.30
2023-05-18T00:49:19.996Z,7.20
2023-05-18T00:51:47.378Z,7.10
2023-05-18T00:54:15.650Z,7.20
2023-05-18T00:56:46.338Z,7.10
2023-05-18T00:59:13.572Z,7.00
2023-05-18T01:01:47.005Z,7.20
2023-05-18T01:04:14.563Z,7.20
2023-05-18T01:06:42.558Z,7.10
2023-05-18T01:09:12.097Z,7.00
2023-05-18T01:11:48.364Z,7.40
2023-05-18T01:14:36.581Z,7.20
2023-05-18T01:17:47.462Z,7.10
2023-05-18T01:20:26.683Z,7.00
2023-05-18T01:23:05.578Z,6.90
2023-05-18T01:25:44.388Z,6.80
2023-05-18T01:28:16.313Z,6.80
2023-05-18T01:30:43.597Z,6.80
2023-05-18T01:33:13.987Z,6.90
2023-05-18T01:35:49.929Z,6.80
2023-05-18T01:38:20.729Z,6.80
2023-05-18T01:40:59.169Z,6.90
2023-05-18T01:43:33.947Z,6.90
2023-05-18T01:46:34.274Z,6.90
2023-05-18T01:49:10.006Z,7.00
2023-05-18T01:51:41.689Z,6.80
2023-05-18T01:54:11.480Z,6.80
2023-05-18T01:56:40.408Z,6.80
2023-05-18T01:59:07.847Z,6.80
2023-05-18T02:01:34.773Z,6.90
2023-05-18T02:04:01.763Z,7.00
2023-05-18T02:06:31.084Z,7.00
2023-05-18T02:08:57.909Z,6.90
2023-05-18T02:11:24.765Z,6.90
2023-05-18T02:13:51.671Z,6.90
2023-05-18T02:16:19.987Z,6.80
2023-05-18T02:18:47.053Z,6.90
2023-05-18T02:21:14.520Z,6.80
2023-05-18T02:23:41.716Z,6.80
2023-05-18T02:26:08.546Z,6.90
2023-05-18T02:28:35.905Z,6.80
2023-05-18T02:31:14.526Z,6.70
2023-05-18T02:33:41.584Z,6.70
2023-05-18T02:36:13.610Z,6.70
2023-05-18T02:38:43.513Z,6.70
2023-05-18T02:41:12.074Z,6.70
2023-05-18T02:43:38.998Z,6.70
2023-05-18T02:46:07.518Z,6.70
2023-05-18T02:48:34.559Z,6.70
2023-05-18T02:51:01.365Z,6.70
2023-05-18T02:53:28.188Z,6.70
2023-05-18T02:56:03.892Z,6.80
2023-05-18T02:58:40.655Z,6.80
2023-05-18T03:01:14.529Z,6.70
2023-05-18T03:03:48.108Z,6.70
2023-05-18T03:06:16.073Z,6.60
2023-05-18T03:08:43.974Z,6.60
2023-05-18T03:11:12.537Z,6.60
2023-05-18T03:13:39.366Z,6.60
2023-05-18T03:16:06.463Z,6.60
2023-05-18T03:18:33.445Z,6.60
2023-05-18T03:21:02.153Z,6.70
2023-05-18T03:23:30.260Z,6.70
2023-05-18T03:25:57.476Z,6.70
2023-05-18T03:28:30.021Z,6.70
2023-05-18T03:30:58.080Z,6.70
2023-05-18T03:33:26.985Z,6.70
2023-05-18T03:35:54.618Z,6.70
2023-05-18T03:38:21.721Z,6.70
2023-05-18T03:40:56.266Z,6.70
2023-05-18T03:43:25.876Z,6.70
2023-05-18T03:45:53.787Z,6.60
2023-05-18T03:48:21.738Z,6.60
2023-05-18T03:50:48.857Z,6.70
2023-05-18T03:53:19.201Z,6.70
2023-05-18T03:55:46.569Z,6.60
2023-05-18T03:58:13.719Z,6.60
2023-05-18T04:00:40.743Z,6.60
2023-05-18T04:03:07.651Z,6.60
2023-05-18T04:05:35.637Z,6.50
2023-05-18T04:08:02.467Z,6.50
2023-05-18T04:10:30.429Z,6.50
2023-05-18T04:12:57.471Z,6.50
2023-05-18T04:15:24.374Z,6.50
2023-05-18T04:17:51.812Z,6.50
2023-05-18T04:20:19.296Z,6.50
2023-05-18T04:22:49.118Z,6.50
2023-05-18T04:25:18.699Z,6.50
2023-05-18T04:27:45.824Z,6.50
2023-05-18T04:30:13.292Z,6.50
2023-05-18T04:32:43.232Z,6.50
2023-05-18T04:35:11.668Z,6.40
2023-05-18T04:37:40.487Z,6.40
2023-05-18T04:40:13.848Z,6.40
2023-05-18T04:42:47.936Z,6.40
2023-05-18T04:45:20.484Z,6.40
2023-05-18T04:47:54.230Z,6.50
2023-05-18T04:50:26.332Z,6.40
2023-05-18T04:52:53.986Z,6.40
2023-05-18T04:55:29.012Z,6.40
2023-05-18T04:58:03.222Z,6.50
2023-05-18T05:00:30.592Z,6.30
2023-05-18T05:02:58.605Z,6.30
2023-05-18T05:05:26.814Z,6.40
2023-05-18T05:07:54.720Z,6.40
2023-05-18T05:10:22.329Z,6.40
2023-05-18T05:12:52.745Z,6.30
2023-05-18T05:15:20.723Z,6.40
2023-05-18T05:17:49.820Z,6.60
2023-05-18T05:20:17.719Z,6.40
2023-05-18T05:22:44.774Z,6.40
2023-05-18T05:25:14.435Z,6.50
2023-05-18T05:27:41.995Z,6.50
2023-05-18T05:30:09.641Z,6.50
2023-05-18T05:32:37.813Z,6.50
2023-05-18T05:35:07.323Z,6.40
2023-05-18T05:37:35.927Z,6.40
2023-05-18T05:40:06.164Z,6.50
2023-05-18T05:42:37.244Z,6.40
2023-05-18T05:45:04.708Z,6.50
2023-05-18T05:47:34.934Z,6.50
2023-05-18T05:50:01.882Z,6.50
2023-05-18T05:52:29.817Z,6.50
2023-05-18T05:54:57.065Z,6.60
2023-05-18T05:57:24.948Z,6.60
2023-05-18T05:59:52.049Z,6.60
2023-05-18T06:02:19.201Z,6.70
2023-05-18T06:04:46.132Z,6.80
2023-05-18T06:07:13.054Z,6.80
2023-05-18T06:09:40.960Z,6.90
2023-05-18T06:12:08.815Z,7.00
2023-05-18T06:14:36.294Z,6.80
2023-05-18T06:17:03.831Z,6.80
2023-05-18T06:19:31.091Z,6.90
2023-05-18T06:21:58.062Z,6.90
2023-05-18T06:24:27.063Z,7.00
2023-05-18T06:27:17.213Z,7.10
2023-05-18T06:29:55.056Z,7.20
2023-05-18T06:32:48.430Z,7.30
2023-05-18T06:35:16.027Z,7.10
2023-05-18T06:37:44.194Z,7.10
2023-05-18T06:40:12.394Z,7.10
2023-05-18T06:42:39.396Z,7.20
2023-05-18T06:45:24.724Z,7.20
2023-05-18T06:47:54.636Z,7.30
2023-05-18T06:50:22.085Z,7.40
2023-05-18T06:52:49.097Z,7.40
2023-05-18T06:55:16.232Z,7.70
2023-05-18T06:57:43.222Z,7.80
2023-05-18T07:00:12.506Z,7.60
2023-05-18T07:02:40.003Z,7.50
2023-05-18T07:05:09.209Z,7.80
2023-05-18T07:07:39.420Z,7.60
2023-05-18T07:10:07.051Z,7.70
2023-05-18T07:12:34.043Z,7.80
2023-05-18T07:15:01.035Z,7.80
2023-05-18T07:17:28.180Z,7.90
2023-05-18T07:19:55.139Z,8.00
2023-05-18T07:22:22.075Z,8.00
2023-05-18T07:24:49.079Z,8.00
2023-05-18T07:27:16.054Z,8.10
2023-05-18T07:29:43.211Z,8.00
2023-05-18T07:32:10.166Z,8.10
2023-05-18T07:34:37.527Z,8.10
2023-05-18T07:37:05.212Z,8.30
2023-05-18T07:39:32.208Z,8.30
2023-05-18T07:41:59.246Z,8.50
2023-05-18T07:44:26.173Z,8.50
2023-05-18T07:46:53.287Z,8.50
2023-05-18T07:49:23.490Z,8.40
2023-05-18T07:51:52.926Z,8.50
2023-05-18T07:54:20.488Z,8.80
2023-05-18T07:56:48.083Z,8.70
2023-05-18T07:59:16.178Z,8.60
2023-05-18T08:01:45.151Z,8.90
2023-05-18T08:04:12.253Z,8.80
2023-05-18T08:06:39.284Z,8.90
2023-05-18T08:09:07.046Z,8.80
2023-05-18T08:11:34.227Z,9.10
2023-05-18T08:14:01.208Z,9.00
2023-05-18T08:16:29.293Z,9.10
2023-05-18T08:18:56.255Z,9.00
2023-05-18T08:21:23.219Z,9.40
2023-05-18T08:23:50.105Z,9.30
2023-05-18T08:26:17.168Z,9.40
2023-05-18T08:28:45.338Z,9.50
2023-05-18T08:31:12.466Z,9.80
2023-05-18T08:33:39.630Z,9.60
2023-05-18T08:36:06.994Z,9.90
2023-05-18T08:38:33.934Z,9.70
2023-05-18T08:41:15.184Z,10.00
2023-05-18T08:43:45.874Z,9.90
2023-05-18T08:46:26.446Z,10.00
2023-05-18T08:48:54.954Z,9.90
2023-05-18T08:51:22.800Z,10.00
2023-05-18T08:53:53.895Z,10.10
2023-05-18T08:56:23.475Z,10.10
2023-05-18T08:58:54.594Z,10.20
2023-05-18T09:01:23.604Z,10.90
2023-05-18T09:03:51.072Z,10.40
2023-05-18T09:06:19.333Z,10.60
2023-05-18T09:08:46.832Z,10.40
2023-05-18T09:11:14.326Z,10.40
2023-05-18T09:13:41.400Z,10.40
2023-05-18T09:16:08.678Z,10.80
2023-05-18T09:18:35.842Z,10.70
2023-05-18T09:21:02.852Z,10.60
2023-05-18T09:23:30.684Z,10.80
2023-05-18T09:25:59.387Z,10.80
2023-05-18T09:28:49.434Z,10.80
2023-05-18T09:31:21.069Z,10.80
2023-05-18T09:33:50.416Z,11.20
2023-05-18T09:36:18.189Z,10.90
2023-05-18T09:38:46.903Z,10.90
2023-05-18T09:41:17.934Z,10.90
2023-05-18T09:43:46.442Z,10.90
2023-05-18T09:46:13.834Z,11.10
2023-05-18T09:48:51.583Z,11.20
2023-05-18T09:51:21.884Z,11.10
2023-05-18T09:53:57.227Z,11.00
2023-05-18T09:56:25.899Z,11.00
2023-05-18T09:58:53.861Z,11.10
2023-05-18T10:01:20.907Z,11.20
2023-05-18T10:03:49.859Z,11.30
2023-05-18T10:06:21.424Z,11.10
2023-05-18T10:08:48.797Z,11.10
2023-05-18T10:11:21.993Z,11.30
2023-05-18T10:13:54.976Z,11.40
2023-05-18T10:16:24.266Z,11.40
2023-05-18T10:18:54.613Z,11.50
2023-05-18T10:21:24.540Z,11.60
2023-05-18T10:23:52.332Z,11.70
2023-05-18T10:26:24.102Z,11.80
2023-05-18T10:28:53.242Z,11.70
2023-05-18T10:31:21.680Z,11.60
2023-05-18T10:33:50.805Z,11.40
2023-05-18T10:36:18.407Z,11.70
2023-05-18T10:38:46.934Z,11.80
2023-05-18T10:41:14.672Z,12.00
2023-05-18T10:43:44.038Z,11.90
2023-05-18T10:46:12.244Z,12.00
2023-05-18T10:48:40.863Z,12.00
2023-05-18T10:51:08.458Z,12.20
2023-05-18T10:53:37.068Z,12.40
2023-05-18T10:56:04.209Z,12.30
2023-05-18T10:58:32.072Z,12.30
2023-05-18T11:01:06.308Z,12.30
2023-05-18T11:03:33.788Z,12.30
2023-05-18T11:06:08.314Z,12.60
2023-05-18T11:08:42.459Z,12.50
2023-05-18T11:11:09.580Z,12.30
2023-05-18T11:13:38.708Z,12.50
2023-05-18T11:16:07.147Z,12.20
2023-05-18T11:18:39.886Z,12.20
2023-05-18T11:21:32.563Z,12.30
2023-05-18T11:24:16.362Z,12.50
2023-05-18T11:27:06.946Z,12.50
2023-05-18T11:29:42.246Z,12.50
2023-05-18T11:32:30.219Z,12.50
2023-05-18T11:34:57.900Z,12.60
2023-05-18T11:37:40.053Z,12.70
2023-05-18T11:40:11.768Z,12.90
2023-05-18T11:42:39.540Z,13.00
2023-05-18T11:45:12.003Z,12.90
2023-05-18T11:47:41.135Z,13.10
2023-05-18T11:50:10.470Z,13.30
2023-05-18T11:52:52.574Z,13.10
2023-05-18T11:55:20.973Z,13.10
2023-05-18T11:57:52.238Z,13.00
2023-05-18T12:00:20.527Z,13.00
2023-05-18T12:02:48.821Z,12.90
2023-05-18T12:05:16.403Z,13.00
2023-05-18T12:07:45.000Z,13.10
2023-05-18T12:10:17.137Z,13.00
2023-05-18T12:12:47.563Z,13.00
2023-05-18T12:15:16.979Z,13.00
2023-05-18T12:17:50.570Z,13.00
2023-05-18T12:20:31.316Z,13.00
2023-05-18T12:22:58.579Z,13.00
2023-05-18T12:25:28.006Z,13.40
2023-05-18T12:27:56.890Z,13.30
2023-05-18T12:30:35.902Z,13.50
2023-05-18T12:33:03.869Z,13.30
2023-05-18T12:35:31.796Z,13.30
2023-05-18T12:38:00.602Z,13.20
2023-05-18T12:40:34.268Z,13.20
2023-05-18T12:43:03.123Z,13.30
2023-05-18T12:45:32.610Z,13.40
2023-05-18T12:48:07.305Z,13.50
2023-05-18T12:50:36.407Z,13.60
2023-05-18T12:53:03.262Z,13.60
2023-05-18T12:55:31.895Z,13.80
2023-05-18T12:58:08.088Z,13.80
2023-05-18T13:00:39.273Z,13.70
2023-05-18T13:03:13.753Z,13.60
2023-05-18T13:05:44.857Z,13.60
2023-05-18T13:08:19.979Z,13.40
2023-05-18T13:10:53.000Z,13.50
2023-05-18T13:13:22.417Z,13.60
2023-05-18T13:15:51.425Z,14.00
2023-05-18T13:18:18.236Z,13.90
2023-05-18T13:20:52.963Z,14.00
2023-05-18T13:23:22.091Z,14.00
2023-05-18T13:25:49.884Z,14.10
2023-05-18T13:28:20.978Z,14.10
2023-05-18T13:30:50.372Z,13.90
2023-05-18T13:33:19.142Z,13.80
2023-05-18T13:35:48.562Z,13.80
2023-05-18T13:38:15.882Z,13.80
2023-05-18T13:40:42.959Z,13.80
2023-05-18T13:43:12.081Z,13.90
2023-05-18T13:45:41.153Z,13.90
2023-05-18T13:48:10.698Z,13.90
2023-05-18T13:50:38.991Z,13.60
2023-05-18T13:53:06.774Z,13.60
2023-05-18T13:55:34.395Z,13.50
2023-05-18T13:58:01.447Z,13.30
2023-05-18T14:00:28.678Z,13.60
2023-05-18T14:02:56.632Z,13.70
2023-05-18T14:05:23.917Z,13.70
2023-05-18T14:07:52.583Z,13.60
2023-05-18T14:10:20.512Z,13.70
2023-05-18T14:12:47.637Z,13.60
2023-05-18T14:15:14.924Z,13.60
2023-05-18T14:17:45.472Z,13.50
2023-05-18T14:20:12.807Z,13.50
2023-05-18T14:22:40.103Z,13.50
2023-05-18T14:25:07.268Z,13.50
2023-05-18T14:27:34.301Z,13.60
2023-05-18T14:30:01.478Z,13.60
2023-05-18T14:32:28.582Z,13.70
2023-05-18T14:34:58.115Z,13.60
2023-05-18T14:37:25.721Z,13.60
2023-05-18T14:39:52.719Z,13.60
2023-05-18T14:42:19.586Z,13.70
2023-05-18T14:44:47.109Z,13.90
2023-05-18T14:47:14.021Z,13.90
2023-05-18T14:49:41.036Z,13.80
2023-05-18T14:52:07.897Z,13.80
2023-05-18T14:54:35.034Z,13.80
2023-05-18T14:57:01.955Z,13.80
2023-05-18T14:59:28.992Z,13.80
2023-05-18T15:01:56.040Z,13.80
2023-05-18T15:04:23.682Z,14.00
2023-05-18T15:06:51.060Z,13.80
2023-05-18T15:09:17.999Z,13.90
2023-05-18T15:11:45.667Z,13.90
2023-05-18T15:14:12.747Z,13.80
2023-05-18T15:16:39.728Z,13.90
2023-05-18T15:19:06.799Z,13.80
2023-05-18T15:21:40.305Z,13.90
2023-05-18T15:24:07.436Z,13.90
2023-05-18T15:26:34.700Z,13.90
2023-05-18T15:29:01.555Z,13.80
2023-05-18T15:31:28.413Z,14.00
2023-05-18T15:33:55.751Z,14.00
2023-05-18T15:36:23.709Z,14.00
2023-05-18T15:38:50.583Z,13.90
2023-05-18T15:41:18.947Z,13.90
2023-05-18T15:43:46.697Z,13.80
2023-05-18T15:46:13.606Z,13.90
2023-05-18T15:48:40.437Z,13.80
2023-05-18T15:51:07.538Z,13.80
2023-05-18T15:53:34.496Z,13.80
2023-05-18T15:56:01.377Z,13.70
2023-05-18T15:58:28.447Z,13.80
2023-05-18T16:00:55.289Z,13.80
2023-05-18T16:03:22.316Z,13.70
2023-05-18T16:05:50.198Z,13.70
2023-05-18T16:08:17.083Z,13.60
2023-05-18T16:10:43.866Z,13.60
2023-05-18T16:13:10.698Z,13.70
2023-05-18T16:15:37.567Z,13.60
2023-05-18T16:18:04.740Z,13.50
2023-05-18T16:20:31.788Z,13.60
2023-05-18T16:22:59.112Z,13.50
2023-05-18T16:25:26.422Z,13.50
2023-05-18T16:27:53.265Z,13.40
2023-05-18T16:30:20.104Z,13.40
2023-05-18T16:32:46.947Z,13.30
2023-05-18T16:35:13.762Z,13.40
2023-05-18T16:37:40.906Z,13.30
2023-05-18T16:40:08.497Z,13.40
2023-05-18T16:42:35.519Z,13.30
2023-05-18T16:45:03.051Z,13.30
2023-05-18T16:47:32.650Z,13.30
2023-05-18T16:50:00.417Z,13.30
2023-05-18T16:52:27.674Z,13.30
2023-05-18T16:54:54.590Z,13.30
2023-05-18T16:57:22.171Z,13.30
2023-05-18T16:59:49.181Z,13.10
2023-05-18T17:02:17.443Z,13.00
2023-05-18T17:04:49.868Z,12.80
2023-05-18T17:07:17.354Z,13.00
2023-05-18T17:09:44.539Z,12.90
2023-05-18T17:12:12.007Z,13.00
2023-05-18T17:14:39.321Z,13.00
2023-05-18T17:17:07.189Z,12.90
2023-05-18T17:19:39.371Z,12.80
2023-05-18T17:22:06.352Z,12.90
2023-05-18T17:24:33.295Z,13.00
2023-05-18T17:27:00.217Z,12.90
2023-05-18T17:29:27.502Z,12.90
2023-05-18T17:31:54.769Z,12.90
2023-05-18T17:34:22.243Z,12.80
2023-05-18T17:36:49.616Z,12.80
2023-05-18T17:39:16.705Z,12.90
2023-05-18T17:41:44.488Z,12.90
2023-05-18T17:44:16.261Z,12.90
2023-05-18T17:46:45.832Z,12.70
2023-05-18T17:49:14.207Z,12.70
2023-05-18T17:51:41.532Z,12.70
2023-05-18T17:54:08.462Z,12.70
2023-05-18T17:56:35.936Z,12.80
2023-05-18T17:59:03.601Z,12.80
2023-05-18T18:01:30.883Z,12.60
2023-05-18T18:03:58.234Z,12.60
2023-05-18T18:06:26.039Z,12.50
2023-05-18T18:08:54.115Z,12.60
2023-05-18T18:11:22.025Z,12.60
2023-05-18T18:13:49.731Z,12.50
2023-05-18T18:16:18.015Z,12.30
2023-05-18T18:18:45.279Z,12.50
2023-05-18T18:21:12.431Z,12.50
2023-05-18T18:23:40.145Z,12.50
2023-05-18T18:26:08.525Z,12.50
2023-05-18T18:28:35.842Z,12.40
2023-05-18T18:31:03.516Z,12.40
2023-05-18T18:33:30.589Z,12.50
2023-05-18T18:35:58.975Z,12.40
2023-05-18T18:38:29.015Z,12.40
2023-05-18T18:41:01.749Z,12.40
2023-05-18T18:43:29.181Z,12.30
2023-05-18T18:45:59.494Z,12.30
2023-05-18T18:48:26.974Z,12.30
2023-05-18T18:50:53.870Z,12.30
2023-05-18T18:53:20.910Z,12.30
2023-05-18T18:55:48.345Z,12.30
2023-05-18T18:58:15.736Z,12.40
2023-05-18T19:00:42.741Z,12.40
2023-05-18T19:03:10.063Z,12.40
2023-05-18T19:05:38.397Z,12.50
2023-05-18T19:08:05.774Z,12.20
2023-05-18T19:10:34.392Z,12.20
2023-05-18T19:13:05.644Z,12.20
2023-05-18T19:15:34.630Z,12.30
2023-05-18T19:18:02.325Z,12.20
2023-05-18T19:20:29.447Z,12.10
2023-05-18T19:22:56.367Z,12.10
2023-05-18T19:25:26.455Z,12.00
2023-05-18T19:27:53.973Z,12.10
2023-05-18T19:30:22.195Z,12.10
2023-05-18T19:32:53.191Z,12.10
2023-05-18T19:35:21.041Z,12.10
2023-05-18T19:37:48.329Z,12.00
2023-05-18T19:40:16.309Z,12.10
2023-05-18T19:42:43.297Z,12.20
2023-05-18T19:45:10.248Z,12.30
2023-05-18T19:47:37.269Z,12.10
2023-05-18T19:50:04.660Z,12.10
2023-05-18T19:52:33.440Z,12.00
2023-05-18T19:55:00.609Z,12.00
2023-05-18T19:57:27.718Z,12.00
2023-05-18T19:59:54.699Z,12.10
2023-05-18T20:02:21.596Z,12.00
2023-05-18T20:04:48.625Z,11.90
2023-05-18T20:07:17.077Z,11.80
2023-05-18T20:09:43.967Z,12.00
2023-05-18T20:12:11.165Z,12.00
2023-05-18T20:14:38.969Z,12.00
2023-05-18T20:17:06.480Z,11.70
2023-05-18T20:19:33.419Z,11.80
2023-05-18T20:22:00.598Z,11.60
2023-05-18T20:24:27.586Z,11.90
2023-05-18T20:26:54.514Z,11.70
2023-05-18T20:29:21.436Z,11.70
2023-05-18T20:31:48.507Z,11.80
2023-05-18T20:34:15.601Z,11.90
2023-05-18T20:36:42.512Z,11.90
2023-05-18T20:39:09.466Z,11.70
2023-05-18T20:41:40.113Z,11.80
2023-05-18T20:44:10.525Z,11.80
2023-05-18T20:46:42.513Z,11.70
2023-05-18T20:49:12.940Z,11.60
2023-05-18T20:51:39.943Z,11.90
2023-05-18T20:54:06.874Z,11.70
2023-05-18T20:56:35.726Z,11.60
2023-05-18T20:59:04.175Z,11.80
2023-05-18T21:01:39.106Z,11.70
2023-05-18T21:04:06.548Z,11.90
2023-05-18T21:06:34.462Z,12.00
2023-05-18T21:09:01.703Z,11.70
2023-05-18T21:11:28.550Z,11.70
2023-05-18T21:13:55.504Z,11.60
2023-05-18T21:16:22.395Z,11.60
2023-05-18T21:18:49.721Z,11.70
2023-05-18T21:21:17.045Z,11.70
2023-05-18T21:23:43.955Z,11.60
2023-05-18T21:26:10.963Z,11.50
2023-05-18T21:28:38.048Z,11.60
2023-05-18T21:31:04.954Z,11.50
2023-05-18T21:33:32.023Z,11.50
2023-05-18T21:35:59.681Z,11.60
2023-05-18T21:38:26.679Z,11.50
2023-05-18T21:40:56.154Z,11.40
2023-05-18T21:43:23.816Z,11.40
2023-05-18T21:45:50.881Z,11.40
2023-05-18T21:48:17.871Z,11.30
2023-05-18T21:50:44.793Z,11.20
2023-05-18T21:53:11.936Z,11.20
2023-05-18T21:55:38.825Z,11.30
2023-05-18T21:58:05.906Z,11.40
2023-05-18T22:00:34.900Z,11.10
2023-05-18T22:03:01.934Z,11.20
2023-05-18T22:05:28.946Z,11.30
2023-05-18T22:07:56.027Z,11.20
2023-05-18T22:10:22.971Z,11.10
2023-05-18T22:12:49.879Z,11.30
2023-05-18T22:15:17.208Z,11.20
2023-05-18T22:17:46.194Z,11.10
2023-05-18T22:20:13.344Z,11.30
2023-05-18T22:22:42.971Z,11.60
2023-05-18T22:25:10.027Z,11.50
2023-05-18T22:27:38.561Z,11.40
2023-05-18T22:30:09.519Z,11.50
2023-05-18T22:32:36.621Z,11.40
2023-05-18T22:35:03.799Z,11.30
2023-05-18T22:37:31.553Z,11.30
2023-05-18T22:39:58.439Z,11.30
2023-05-18T22:42:25.283Z,11.60
2023-05-18T22:44:52.161Z,11.50
2023-05-18T22:47:21.533Z,11.60
2023-05-18T22:49:49.243Z,11.50
2023-05-18T22:52:17.913Z,11.40
2023-05-18T22:54:44.834Z,11.40
2023-05-18T22:57:11.821Z,11.40
2023-05-18T22:59:38.805Z,11.40
2023-05-18T23:02:06.156Z,11.60
2023-05-18T23:04:34.058Z,11.30
2023-05-18T23:07:01.856Z,11.40
2023-05-18T23:09:30.520Z,11.30
2023-05-18T23:11:59.532Z,11.30
2023-05-18T23:14:31.088Z,11.20
2023-05-18T23:17:00.899Z,11.30
2023-05-18T23:19:27.869Z,11.50
2023-05-18T23:21:55.556Z,11.20
2023-05-18T23:24:22.573Z,11.40
2023-05-18T23:26:50.812Z,11.30
2023-05-18T23:29:18.906Z,11.40
2023-05-18T23:31:46.036Z,11.20
2023-05-18T23:34:13.229Z,11.20
2023-05-18T23:36:42.807Z,11.20
2023-05-18T23:39:10.557Z,11.20
2023-05-18T23:41:39.153Z,11.20
2023-05-18T23:44:07.042Z,11.20
2023-05-18T23:46:34.689Z,11.10
2023-05-18T23:49:01.849Z,11.20
2023-05-18T23:51:32.135Z,11.10
2023-05-18T23:54:00.251Z,11.00
2023-05-18T23:56:27.381Z,11.00
2023-05-18T23:58:54.478Z,11.10
